createdAt,value
2022-08-26T00:00:53.012Z,100113.50
2022-08-26T00:01:58.113Z,100107.88
2022-08-26T00:03:04.111Z,100103.88
2022-08-26T00:04:12.047Z,100105.56
2022-08-26T00:05:15.982Z,100104.53
2022-08-26T00:06:21.255Z,100112.17
2022-08-26T00:07:26.333Z,100104.53
2022-08-26T00:08:29.947Z,100101.88
2022-08-26T00:09:38.916Z,100102.91
2022-08-26T00:10:42.733Z,100104.28
2022-08-26T00:11:47.200Z,100098.95
2022-08-26T00:14:07.001Z,100098.64
2022-08-26T00:15:14.998Z,100095.23
2022-08-26T00:16:19.965Z,100102.20
2022-08-26T00:17:25.912Z,100097.27
2022-08-26T00:18:38.799Z,100095.95
2022-08-26T00:19:46.178Z,100093.91
2022-08-26T00:20:53.056Z,100100.11
2022-08-26T00:21:58.481Z,100100.47
2022-08-26T00:23:03.273Z,100098.91
2022-08-26T00:24:06.712Z,100090.97
2022-08-26T00:25:13.980Z,100095.67
2022-08-26T00:26:21.436Z,100089.77
2022-08-26T00:27:25.817Z,100094.34
2022-08-26T00:28:28.979Z,100092.48
2022-08-26T00:29:35.546Z,100094.83
2022-08-26T00:30:40.251Z,100090.44
2022-08-26T00:31:45.961Z,100093.80
2022-08-26T00:32:51.416Z,100090.97
2022-08-26T00:33:56.894Z,100080.55
2022-08-26T00:35:00.592Z,100087.64
2022-08-26T00:36:08.562Z,100083.92
2022-08-26T00:37:21.428Z,100086.31
2022-08-26T00:38:30.676Z,100091.72
2022-08-26T00:39:34.768Z,100088.48
2022-08-26T00:40:42.658Z,100089.33
2022-08-26T00:41:50.730Z,100086.66
2022-08-26T00:44:08.667Z,100086.62
2022-08-26T00:45:13.537Z,100088.70
2022-08-26T00:46:29.746Z,100087.69
2022-08-26T00:47:39.735Z,100089.44
2022-08-26T00:48:46.270Z,100089.27
2022-08-26T00:49:58.472Z,100083.72
2022-08-26T00:51:14.784Z,100085.89
2022-08-26T00:52:23.318Z,100081.69
2022-08-26T00:53:30.116Z,100084.73
2022-08-26T00:54:42.254Z,100078.17
2022-08-26T00:55:45.858Z,100073.33
2022-08-26T00:57:00.812Z,100079.33
2022-08-26T00:58:07.329Z,100075.96
2022-08-26T00:59:13.626Z,100074.84
2022-08-26T01:00:25.774Z,100076.88
2022-08-26T01:01:30.658Z,100070.91
2022-08-26T01:02:34.071Z,100071.40
2022-08-26T01:03:39.126Z,100074.63
2022-08-26T01:04:45.777Z,100072.17
2022-08-26T01:05:56.717Z,100069.46
2022-08-26T01:07:01.126Z,100069.12
2022-08-26T01:08:05.606Z,100070.83
2022-08-26T01:09:09.467Z,100070.23
2022-08-26T01:10:20.496Z,100068.02
2022-08-26T01:11:26.393Z,100067.11
2022-08-26T01:12:33.795Z,100070.55
2022-08-26T01:13:37.889Z,100066.44
2022-08-26T01:14:43.652Z,100067.78
2022-08-26T01:15:53.119Z,100064.59
2022-08-26T01:16:57.286Z,100073.25
2022-08-26T01:18:05.831Z,100068.37
2022-08-26T01:19:22.264Z,100065.84
2022-08-26T01:20:38.922Z,100071.56
2022-08-26T01:21:55.105Z,100065.42
2022-08-26T01:23:08.002Z,100058.89
2022-08-26T01:24:14.060Z,100060.95
2022-08-26T01:25:19.218Z,100056.39
2022-08-26T01:26:34.800Z,100062.47
2022-08-26T01:27:39.759Z,100058.92
2022-08-26T01:28:44.461Z,100064.55
2022-08-26T01:29:51.670Z,100059.65
2022-08-26T01:31:00.569Z,100060.78
2022-08-26T01:32:07.679Z,100056.57
2022-08-26T01:33:14.881Z,100061.86
2022-08-26T01:34:25.781Z,100057.62
2022-08-26T01:35:31.907Z,100060.00
2022-08-26T01:36:38.189Z,100063.66
2022-08-26T01:37:43.366Z,100058.46
2022-08-26T01:38:47.008Z,100062.35
2022-08-26T01:39:54.457Z,100057.47
2022-08-26T01:42:15.318Z,100058.46
2022-08-26T01:43:24.667Z,100053.60
2022-08-26T01:44:32.103Z,100057.52
2022-08-26T01:45:40.762Z,100062.92
2022-08-26T01:46:47.172Z,100051.77
2022-08-26T01:47:56.550Z,100058.19
2022-08-26T01:49:06.581Z,100051.94
2022-08-26T01:50:18.061Z,100051.61
2022-08-26T01:51:25.082Z,100053.31
2022-08-26T01:52:32.185Z,100053.97
2022-08-26T01:53:39.071Z,100047.55
2022-08-26T01:54:46.336Z,100053.80
2022-08-26T01:55:54.812Z,100060.40
2022-08-26T01:56:59.449Z,100046.21
2022-08-26T01:58:06.269Z,100050.48
2022-08-26T01:59:14.349Z,100057.73
2022-08-26T02:00:20.396Z,100042.55
2022-08-26T02:01:29.129Z,100056.55
2022-08-26T02:02:32.591Z,100053.01
2022-08-26T02:03:39.318Z,100055.88
2022-08-26T02:06:06.535Z,100047.41
2022-08-26T02:07:15.672Z,100052.51
2022-08-26T02:08:30.855Z,100049.14
2022-08-26T02:09:41.401Z,100056.23
2022-08-26T02:10:45.237Z,100050.54
2022-08-26T02:11:51.215Z,100045.61
2022-08-26T02:12:55.031Z,100046.11
2022-08-26T02:14:06.360Z,100050.20
2022-08-26T02:15:16.694Z,100049.87
2022-08-26T02:16:24.453Z,100046.16
2022-08-26T02:17:34.927Z,100047.34
2022-08-26T02:18:42.107Z,100048.34
2022-08-26T02:19:49.658Z,100054.08
2022-08-26T02:20:55.398Z,100053.06
2022-08-26T02:22:06.076Z,100050.37
2022-08-26T02:23:12.911Z,100049.88
2022-08-26T02:24:21.690Z,100052.56
2022-08-26T02:25:52.652Z,100044.81
2022-08-26T02:26:58.609Z,100054.08
2022-08-26T02:28:04.487Z,100046.66
2022-08-26T02:29:12.828Z,100046.83
2022-08-26T02:30:28.371Z,100050.20
2022-08-26T02:31:33.069Z,100055.81
2022-08-26T02:32:36.982Z,100045.02
2022-08-26T02:33:45.627Z,100050.25
2022-08-26T02:34:48.212Z,100050.42
2022-08-26T02:35:52.056Z,100049.07
2022-08-26T02:37:03.690Z,100056.66
2022-08-26T02:38:13.743Z,100047.92
2022-08-26T02:39:22.032Z,100047.92
2022-08-26T02:40:28.836Z,100054.67
2022-08-26T02:41:33.395Z,100050.25
2022-08-26T02:42:39.149Z,100047.89
2022-08-26T02:43:44.169Z,100047.05
2022-08-26T02:44:48.989Z,100046.20
2022-08-26T02:45:53.172Z,100051.60
2022-08-26T02:46:58.089Z,100056.86
2022-08-26T02:48:09.313Z,100052.65
2022-08-26T02:49:13.503Z,100059.02
2022-08-26T02:50:20.799Z,100049.61
2022-08-26T02:51:24.997Z,100058.05
2022-08-26T02:52:29.232Z,100052.48
2022-08-26T02:53:35.497Z,100054.53
2022-08-26T02:54:41.878Z,100052.98
2022-08-26T02:55:48.552Z,100058.24
2022-08-26T02:56:52.778Z,100055.54
2022-08-26T02:57:55.706Z,100052.34
2022-08-26T02:58:59.970Z,100063.64
2022-08-26T03:00:06.635Z,100061.78
2022-08-26T03:01:22.463Z,100059.93
2022-08-26T03:02:27.180Z,100056.86
2022-08-26T03:03:31.437Z,100057.22
2022-08-26T03:04:36.505Z,100057.22
2022-08-26T03:05:44.350Z,100059.93
2022-08-26T03:06:52.754Z,100065.66
2022-08-26T03:07:56.225Z,100064.81
2022-08-26T03:09:00.342Z,100064.77
2022-08-26T03:10:08.351Z,100073.70
2022-08-26T03:11:12.367Z,100067.17
2022-08-26T03:12:15.559Z,100072.87
2022-08-26T03:13:19.794Z,100079.27
2022-08-26T03:14:23.655Z,100071.55
2022-08-26T03:15:31.472Z,100078.97
2022-08-26T03:16:38.906Z,100074.23
2022-08-26T03:17:43.839Z,100077.78
2022-08-26T03:18:52.388Z,100076.57
2022-08-26T03:19:57.218Z,100082.50
2022-08-26T03:21:14.043Z,100082.81
2022-08-26T03:22:18.765Z,100075.42
2022-08-26T03:23:24.864Z,100082.13
2022-08-26T03:24:28.826Z,100085.04
2022-08-26T03:25:33.338Z,100082.17
2022-08-26T03:26:40.663Z,100081.67
2022-08-26T03:27:45.755Z,100083.00
2022-08-26T03:29:09.450Z,100086.56
2022-08-26T03:30:34.211Z,100089.26
2022-08-26T03:31:37.757Z,100088.58
2022-08-26T03:32:43.753Z,100086.56
2022-08-26T03:33:49.582Z,100086.91
2022-08-26T03:34:57.441Z,100088.08
2022-08-26T03:36:06.907Z,100090.25
2022-08-26T03:37:12.834Z,100090.61
2022-08-26T03:38:15.503Z,100088.25
2022-08-26T03:39:19.348Z,100089.94
2022-08-26T03:40:29.037Z,100085.22
2022-08-26T03:41:31.371Z,100088.55
2022-08-26T03:42:37.153Z,100076.09
2022-08-26T03:43:41.278Z,100080.47
2022-08-26T03:44:45.135Z,100077.27
2022-08-26T03:45:51.795Z,100074.23
2022-08-26T03:46:56.601Z,100081.65
2022-08-26T03:48:03.141Z,100071.37
2022-08-26T03:50:25.353Z,100078.55
2022-08-26T03:51:31.196Z,100082.63
2022-08-26T03:52:39.709Z,100085.84
2022-08-26T03:53:44.088Z,100075.38
2022-08-26T03:54:47.976Z,100079.59
2022-08-26T03:55:53.302Z,100080.10
2022-08-26T03:56:57.554Z,100084.32
2022-08-26T03:58:03.401Z,100077.74
2022-08-26T03:59:08.575Z,100079.26
2022-08-26T04:00:18.418Z,100074.53
2022-08-26T04:01:23.319Z,100081.08
2022-08-26T04:02:28.846Z,100080.23
2022-08-26T04:03:52.890Z,100074.53
2022-08-26T04:04:57.153Z,100076.39
2022-08-26T04:06:00.662Z,100076.52
2022-08-26T04:07:04.553Z,100071.96
2022-08-26T04:08:10.116Z,100080.91
2022-08-26T04:09:17.099Z,100069.39
2022-08-26T04:10:28.983Z,100076.13
2022-08-26T04:11:38.293Z,100071.25
2022-08-26T04:12:41.894Z,100071.25
2022-08-26T04:13:48.249Z,100066.30
2022-08-26T04:14:53.245Z,100063.60
2022-08-26T04:15:58.220Z,100066.00
2022-08-26T04:17:03.388Z,100066.52
2022-08-26T04:18:07.470Z,100068.38
2022-08-26T04:19:16.237Z,100065.50
2022-08-26T04:20:20.464Z,100061.63
2022-08-26T04:21:29.452Z,100070.34
2022-08-26T04:22:33.414Z,100067.81
2022-08-26T04:23:46.878Z,100067.14
2022-08-26T04:24:41.883Z,100066.98
2022-08-26T04:25:47.130Z,100072.05
2022-08-26T04:26:52.202Z,100070.48
2022-08-26T04:27:57.780Z,100071.13
2022-08-26T04:29:03.384Z,100065.75
2022-08-26T04:30:10.518Z,100068.05
2022-08-26T04:31:16.830Z,100062.64
2022-08-26T04:32:24.028Z,100066.51
2022-08-26T04:33:32.259Z,100069.95
2022-08-26T04:34:36.091Z,100059.56
2022-08-26T04:35:40.600Z,100064.91
2022-08-26T04:36:46.273Z,100065.42
2022-08-26T04:37:51.575Z,100069.61
2022-08-26T04:38:57.428Z,100073.33
2022-08-26T04:40:00.933Z,100072.83
2022-08-26T04:41:05.424Z,100067.92
2022-08-26T04:42:09.147Z,100071.81
2022-08-26T04:43:16.701Z,100060.52
2022-08-26T04:44:21.797Z,100066.41
2022-08-26T04:45:26.973Z,100064.87
2022-08-26T04:46:32.805Z,100069.19
2022-08-26T04:47:38.625Z,100066.63
2022-08-26T04:48:41.837Z,100075.32
2022-08-26T04:49:47.359Z,100069.95
2022-08-26T04:50:50.820Z,100061.80
2022-08-26T04:51:55.018Z,100072.34
2022-08-26T04:53:01.602Z,100075.89
2022-08-26T04:54:07.907Z,100071.51
2022-08-26T04:55:11.853Z,100078.83
2022-08-26T04:56:15.497Z,100070.94
2022-08-26T04:57:19.912Z,100076.47
2022-08-26T04:58:26.825Z,100066.23
2022-08-26T04:59:30.129Z,100076.64
2022-08-26T05:00:37.870Z,100070.77
2022-08-26T05:01:49.454Z,100079.97
2022-08-26T05:02:53.908Z,100074.83
2022-08-26T05:03:59.774Z,100077.05
2022-08-26T05:05:06.050Z,100076.84
2022-08-26T05:06:12.828Z,100076.74
2022-08-26T05:07:17.679Z,100076.97
2022-08-26T05:08:22.274Z,100081.18
2022-08-26T05:09:30.643Z,100081.45
2022-08-26T05:10:34.637Z,100086.48
2022-08-26T05:11:39.001Z,100083.70
2022-08-26T05:12:44.366Z,100099.36
2022-08-26T05:13:52.604Z,100094.92
2022-08-26T05:14:56.799Z,100096.16
2022-08-26T05:16:13.213Z,100099.61
2022-08-26T05:17:17.496Z,100093.59
2022-08-26T05:18:25.313Z,100092.44
2022-08-26T05:19:30.719Z,100091.86
2022-08-26T05:20:46.935Z,100096.10
2022-08-26T05:21:50.733Z,100100.84
2022-08-26T05:22:55.734Z,100098.02
2022-08-26T05:23:59.619Z,100092.71
2022-08-26T05:25:04.208Z,100092.71
2022-08-26T05:26:09.342Z,100097.11
2022-08-26T05:27:14.724Z,100096.48
2022-08-26T05:28:22.737Z,100100.05
2022-08-26T05:29:25.772Z,100092.60
2022-08-26T05:30:33.076Z,100094.52
2022-08-26T05:31:41.109Z,100091.95
2022-08-26T05:32:46.022Z,100090.98
2022-08-26T05:33:50.405Z,100090.44
2022-08-26T05:34:58.584Z,100091.55
2022-08-26T05:36:11.863Z,100094.78
2022-08-26T05:37:20.461Z,100094.23
2022-08-26T05:38:24.662Z,100104.81
2022-08-26T05:39:34.020Z,100105.66
2022-08-26T05:40:45.662Z,100104.61
2022-08-26T05:41:49.421Z,100099.55
2022-08-26T05:42:55.453Z,100097.39
2022-08-26T05:44:04.288Z,100100.58
2022-08-26T05:45:14.577Z,100097.70
2022-08-26T05:46:20.257Z,100097.75
2022-08-26T05:47:25.489Z,100099.55
2022-08-26T05:48:31.756Z,100098.33
2022-08-26T05:49:35.536Z,100099.61
2022-08-26T05:50:47.650Z,100099.62
2022-08-26T05:51:51.425Z,100102.16
2022-08-26T05:52:55.172Z,100100.45
2022-08-26T05:53:59.241Z,100100.62
2022-08-26T05:55:02.986Z,100096.45
2022-08-26T05:56:08.953Z,100097.95
2022-08-26T05:57:14.507Z,100104.64
2022-08-26T05:58:22.692Z,100101.73
2022-08-26T05:59:27.481Z,100102.41
2022-08-26T06:00:30.706Z,100105.37
2022-08-26T06:01:35.691Z,100101.81
2022-08-26T06:02:40.050Z,100100.73
2022-08-26T06:03:51.511Z,100103.67
2022-08-26T06:04:59.029Z,100110.77
2022-08-26T06:06:09.742Z,100106.60
2022-08-26T06:07:14.471Z,100116.42
2022-08-26T06:08:20.512Z,100113.30
2022-08-26T06:09:27.272Z,100117.08
2022-08-26T06:10:32.919Z,100107.65
2022-08-26T06:11:36.119Z,100126.35
2022-08-26T06:12:39.096Z,100119.06
2022-08-26T06:13:47.018Z,100120.38
2022-08-26T06:14:51.175Z,100115.80
2022-08-26T06:15:55.713Z,100114.92
2022-08-26T06:17:01.730Z,100115.13
2022-08-26T06:18:05.758Z,100113.66
2022-08-26T06:19:11.618Z,100114.75
2022-08-26T06:20:17.411Z,100113.03
2022-08-26T06:21:29.352Z,100108.25
2022-08-26T06:22:50.547Z,100111.81
2022-08-26T06:24:15.988Z,100109.92
2022-08-26T06:25:37.106Z,100114.61
2022-08-26T06:26:46.705Z,100111.86
2022-08-26T06:27:51.952Z,100108.36
2022-08-26T06:28:56.639Z,100114.89
2022-08-26T06:29:59.103Z,100109.30
2022-08-26T06:31:03.952Z,100117.81
2022-08-26T06:32:07.092Z,100113.94
2022-08-26T06:33:13.759Z,100111.97
2022-08-26T06:34:21.500Z,100120.48
2022-08-26T06:35:24.490Z,100117.75
2022-08-26T06:36:35.063Z,100124.16
2022-08-26T06:37:41.498Z,100128.45
2022-08-26T06:38:44.501Z,100115.70
2022-08-26T06:39:48.336Z,100125.14
2022-08-26T06:40:59.763Z,100126.05
2022-08-26T06:42:06.174Z,100131.41
2022-08-26T06:43:11.117Z,100124.22
2022-08-26T06:44:16.335Z,100124.22
2022-08-26T06:45:21.304Z,100132.09
2022-08-26T06:46:33.126Z,100126.36
2022-08-26T06:47:37.236Z,100135.17
2022-08-26T06:48:40.313Z,100139.39
2022-08-26T06:49:46.889Z,100158.88
2022-08-26T06:50:51.924Z,100150.77
2022-08-26T06:52:00.002Z,100153.38
2022-08-26T06:53:04.217Z,100164.88
2022-08-26T06:54:09.059Z,100162.93
2022-08-26T06:55:14.743Z,100167.33
2022-08-26T06:56:22.879Z,100172.30
2022-08-26T06:57:31.687Z,100178.47
2022-08-26T06:58:41.061Z,100180.84
2022-08-26T06:59:44.944Z,100182.84
2022-08-26T07:00:48.026Z,100187.98
2022-08-26T07:01:52.060Z,100194.91
2022-08-26T07:02:58.456Z,100204.53
2022-08-26T07:04:07.921Z,100197.18
2022-08-26T07:05:11.018Z,100201.24
2022-08-26T07:06:17.760Z,100208.11
2022-08-26T07:07:23.079Z,100208.78
2022-08-26T07:08:27.594Z,100212.52
2022-08-26T07:09:32.114Z,100213.44
2022-08-26T07:10:39.860Z,100218.82
2022-08-26T07:11:48.335Z,100216.95
2022-08-26T07:12:53.344Z,100224.98
2022-08-26T07:13:58.382Z,100227.95
2022-08-26T07:15:03.033Z,100228.78
2022-08-26T07:16:13.211Z,100231.64
2022-08-26T07:17:16.542Z,100229.99
2022-08-26T07:18:19.261Z,100232.98
2022-08-26T07:19:30.814Z,100229.55
2022-08-26T07:20:34.372Z,100226.80
2022-08-26T07:21:37.430Z,100226.41
2022-08-26T07:22:42.511Z,100232.67
2022-08-26T07:23:49.721Z,100223.57
2022-08-26T07:24:52.686Z,100220.25
2022-08-26T07:25:56.156Z,100234.52
2022-08-26T07:27:03.933Z,100221.27
2022-08-26T07:28:09.502Z,100229.83
2022-08-26T07:29:14.494Z,100232.88
2022-08-26T07:30:21.762Z,100223.25
2022-08-26T07:31:36.076Z,100224.70
2022-08-26T07:32:37.621Z,100227.52
2022-08-26T07:33:42.243Z,100228.36
2022-08-26T07:34:46.445Z,100231.94
2022-08-26T07:35:53.184Z,100219.72
2022-08-26T07:36:56.486Z,100231.28
2022-08-26T07:38:01.608Z,100218.88
2022-08-26T07:39:07.143Z,100229.11
2022-08-26T07:40:12.215Z,100230.04
2022-08-26T07:41:17.826Z,100227.70
2022-08-26T07:42:24.401Z,100225.16
2022-08-26T07:43:30.516Z,100219.06
2022-08-26T07:44:33.967Z,100223.98
2022-08-26T07:45:37.064Z,100222.12
2022-08-26T07:46:44.153Z,100211.75
2022-08-26T07:47:51.130Z,100212.78
2022-08-26T07:48:55.199Z,100220.45
2022-08-26T07:49:59.328Z,100218.20
2022-08-26T07:51:06.086Z,100216.13
2022-08-26T07:52:10.305Z,100217.20
2022-08-26T07:53:15.618Z,100211.72
2022-08-26T07:54:26.900Z,100211.86
2022-08-26T07:55:28.297Z,100213.33
2022-08-26T07:56:33.072Z,100220.09
2022-08-26T07:57:37.822Z,100212.89
2022-08-26T07:58:44.959Z,100204.97
2022-08-26T07:59:48.578Z,100196.83
2022-08-26T08:00:53.494Z,100197.14
2022-08-26T08:01:59.167Z,100203.37
2022-08-26T08:03:09.417Z,100201.95
2022-08-26T08:04:16.389Z,100199.91
2022-08-26T08:05:27.188Z,100199.56
2022-08-26T08:06:30.959Z,100196.15
2022-08-26T08:07:44.177Z,100201.32
2022-08-26T08:08:41.491Z,100198.61
2022-08-26T08:09:46.391Z,100193.23
2022-08-26T08:10:50.051Z,100191.38
2022-08-26T08:11:54.030Z,100192.32
2022-08-26T08:13:03.583Z,100192.11
2022-08-26T08:14:11.825Z,100198.74
2022-08-26T08:15:21.978Z,100190.16
2022-08-26T08:16:33.469Z,100186.84
2022-08-26T08:17:38.385Z,100187.27
2022-08-26T08:18:42.077Z,100188.77
2022-08-26T08:19:45.748Z,100178.66
2022-08-26T08:21:04.791Z,100174.02
2022-08-26T08:21:54.953Z,100179.47
2022-08-26T08:22:59.884Z,100175.34
2022-08-26T08:24:05.429Z,100175.97
2022-08-26T08:25:10.865Z,100170.64
2022-08-26T08:26:15.237Z,100174.23
2022-08-26T08:27:24.466Z,100170.46
2022-08-26T08:28:30.754Z,100164.50
2022-08-26T08:29:40.355Z,100167.62
2022-08-26T08:30:44.161Z,100166.05
2022-08-26T08:31:57.025Z,100166.89
2022-08-26T08:32:58.899Z,100168.36
2022-08-26T08:34:06.575Z,100165.99
2022-08-26T08:35:13.217Z,100153.25
2022-08-26T08:36:18.481Z,100163.27
2022-08-26T08:37:23.394Z,100150.31
2022-08-26T08:38:28.249Z,100154.00
2022-08-26T08:39:32.911Z,100153.30
2022-08-26T08:40:41.312Z,100150.90
2022-08-26T08:42:05.787Z,100149.63
2022-08-26T08:43:37.799Z,100147.97
2022-08-26T08:44:51.888Z,100151.81
2022-08-26T08:46:01.982Z,100150.17
2022-08-26T08:47:17.639Z,100146.02
2022-08-26T08:48:35.458Z,100150.13
2022-08-26T08:49:40.248Z,100146.13
2022-08-26T08:50:48.745Z,100146.08
2022-08-26T08:52:13.532Z,100150.43
2022-08-26T08:53:36.514Z,100146.41
2022-08-26T08:54:42.833Z,100146.98
2022-08-26T08:56:26.418Z,100144.47
2022-08-26T08:57:46.932Z,100149.95
2022-08-26T08:59:00.680Z,100153.89
2022-08-26T09:00:09.991Z,100149.64
2022-08-26T09:02:38.082Z,100151.19
2022-08-26T09:03:57.919Z,100146.08
2022-08-26T09:05:14.947Z,100143.32
2022-08-26T09:06:21.949Z,100155.75
2022-08-26T09:07:44.373Z,100148.34
2022-08-26T09:08:54.725Z,100158.09
2022-08-26T09:10:03.338Z,100143.41
2022-08-26T09:11:07.031Z,100154.83
2022-08-26T09:12:14.177Z,100142.22
2022-08-26T09:13:25.404Z,100145.81
2022-08-26T09:14:27.280Z,100153.90
2022-08-26T09:15:57.952Z,100149.23
2022-08-26T09:17:17.636Z,100145.53
2022-08-26T09:19:49.858Z,100147.88
2022-08-26T09:21:05.546Z,100146.70
2022-08-26T09:22:09.870Z,100144.80
2022-08-26T09:23:14.411Z,100147.84
2022-08-26T09:24:18.253Z,100154.49
2022-08-26T09:25:22.316Z,100155.05
2022-08-26T09:26:35.524Z,100138.74
2022-08-26T09:27:53.533Z,100142.61
2022-08-26T09:29:03.627Z,100141.13
2022-08-26T09:30:11.499Z,100134.50
2022-08-26T09:31:36.470Z,100136.23
2022-08-26T09:34:29.660Z,100138.61
2022-08-26T09:36:55.161Z,100128.21
2022-08-26T09:38:01.651Z,100136.53
2022-08-26T09:39:08.475Z,100142.31
2022-08-26T09:40:34.828Z,100138.11
2022-08-26T09:41:36.606Z,100139.57
2022-08-26T09:42:41.167Z,100136.80
2022-08-26T09:44:06.047Z,100133.78
2022-08-26T09:45:12.511Z,100138.74
2022-08-26T09:46:21.271Z,100146.49
2022-08-26T09:47:28.950Z,100138.98
2022-08-26T09:48:36.630Z,100136.51
2022-08-26T09:49:42.168Z,100138.17
2022-08-26T09:51:01.394Z,100142.92
2022-08-26T09:52:23.539Z,100130.88
2022-08-26T09:53:39.647Z,100138.74
2022-08-26T09:54:51.334Z,100141.17
2022-08-26T09:56:15.807Z,100139.28
2022-08-26T09:58:40.336Z,100136.09
2022-08-26T09:59:46.224Z,100133.54
2022-08-26T10:00:58.518Z,100136.38
2022-08-26T10:02:20.393Z,100134.72
2022-08-26T10:03:31.623Z,100140.88
2022-08-26T10:04:33.878Z,100139.73
2022-08-26T10:05:47.175Z,100126.16
2022-08-26T10:07:09.313Z,100128.82
2022-08-26T10:08:23.896Z,100128.36
2022-08-26T10:09:29.824Z,100129.23
2022-08-26T10:10:45.751Z,100133.13
2022-08-26T10:11:56.604Z,100126.73
2022-08-26T10:13:07.663Z,100124.72
2022-08-26T10:14:30.883Z,100119.84
2022-08-26T10:15:41.312Z,100122.91
2022-08-26T10:16:54.890Z,100128.77
2022-08-26T10:18:06.911Z,100122.89
2022-08-26T10:19:17.741Z,100116.81
2022-08-26T10:20:25.541Z,100116.00
2022-08-26T10:21:33.648Z,100117.38
2022-08-26T10:22:54.866Z,100115.86
2022-08-26T10:24:02.317Z,100121.56
2022-08-26T10:25:09.239Z,100119.07
2022-08-26T10:26:17.009Z,100114.44
2022-08-26T10:27:25.551Z,100122.81
2022-08-26T10:28:51.040Z,100115.98
2022-08-26T10:30:13.143Z,100122.42
2022-08-26T10:31:38.161Z,100121.56
2022-08-26T10:32:46.433Z,100116.59
2022-08-26T10:33:52.529Z,100114.64
2022-08-26T10:35:00.079Z,100122.95
2022-08-26T10:36:08.708Z,100111.12
2022-08-26T10:37:22.934Z,100114.95
2022-08-26T10:38:38.377Z,100111.05
2022-08-26T10:39:58.544Z,100108.46
2022-08-26T10:41:18.229Z,100113.08
2022-08-26T10:42:23.794Z,100114.34
2022-08-26T10:43:31.361Z,100112.58
2022-08-26T10:44:40.222Z,100115.11
2022-08-26T10:45:51.002Z,100116.34
2022-08-26T10:47:01.144Z,100106.62
2022-08-26T10:49:18.947Z,100106.39
2022-08-26T10:50:29.796Z,100108.26
2022-08-26T10:51:38.985Z,100093.39
2022-08-26T10:52:48.952Z,100107.09
2022-08-26T10:54:03.738Z,100109.25
2022-08-26T10:55:11.143Z,100109.77
2022-08-26T10:56:41.372Z,100103.69
2022-08-26T10:57:55.225Z,100095.31
2022-08-26T10:59:17.435Z,100095.85
2022-08-26T11:00:43.886Z,100089.77
2022-08-26T11:02:03.945Z,100116.64
2022-08-26T11:03:31.025Z,100111.77
2022-08-26T11:04:54.139Z,100111.08
2022-08-26T11:06:20.703Z,100122.03
2022-08-26T11:07:39.802Z,100116.05
2022-08-26T11:09:02.627Z,100115.20
2022-08-26T11:10:17.791Z,100113.55
2022-08-26T11:11:43.094Z,100118.56
2022-08-26T11:12:53.472Z,100118.36
2022-08-26T11:13:58.220Z,100113.67
2022-08-26T11:15:02.974Z,100118.70
2022-08-26T11:16:12.296Z,100125.22
2022-08-26T11:17:20.113Z,100126.06
2022-08-26T11:18:39.480Z,100117.80
2022-08-26T11:20:01.954Z,100121.39
2022-08-26T11:21:05.550Z,100121.77
2022-08-26T11:22:33.246Z,100111.08
2022-08-26T11:23:41.773Z,100111.37
2022-08-26T11:24:47.990Z,100117.80
2022-08-26T11:26:01.420Z,100115.73
2022-08-26T11:27:09.262Z,100119.39
2022-08-26T11:28:17.724Z,100106.17
2022-08-26T11:29:43.056Z,100106.84
2022-08-26T11:30:56.806Z,100112.91
2022-08-26T11:31:58.075Z,100115.93
2022-08-26T11:33:01.971Z,100109.24
2022-08-26T11:34:10.777Z,100107.23
2022-08-26T11:35:20.694Z,100115.59
2022-08-26T11:37:51.776Z,100104.25
2022-08-26T11:38:55.238Z,100110.62
2022-08-26T11:39:59.094Z,100108.87
2022-08-26T11:41:13.256Z,100118.61
2022-08-26T11:42:33.013Z,100115.61
2022-08-26T11:43:38.951Z,100112.92
2022-08-26T11:44:49.433Z,100112.14
2022-08-26T11:46:01.452Z,100113.95
2022-08-26T11:47:11.402Z,100119.59
2022-08-26T11:48:23.861Z,100114.64
2022-08-26T11:49:29.601Z,100113.80
2022-08-26T11:50:33.937Z,100113.77
2022-08-26T11:51:40.845Z,100122.66
2022-08-26T11:53:06.122Z,100116.69
2022-08-26T11:54:17.662Z,100120.68
2022-08-26T11:55:27.816Z,100118.17
2022-08-26T11:56:35.019Z,100115.22
2022-08-26T11:57:55.566Z,100111.31
2022-08-26T11:59:01.665Z,100119.84
2022-08-26T12:00:13.560Z,100114.53
2022-08-26T12:02:42.604Z,100110.53
2022-08-26T12:03:50.198Z,100110.80
2022-08-26T12:04:55.439Z,100109.33
2022-08-26T12:06:00.082Z,100101.17
2022-08-26T12:07:05.573Z,100100.80
2022-08-26T12:08:15.560Z,100107.41
2022-08-26T12:10:38.789Z,100101.52
2022-08-26T12:11:42.609Z,100099.80
2022-08-26T12:12:52.402Z,100096.26
2022-08-26T12:13:59.439Z,100097.27
2022-08-26T12:15:19.014Z,100097.87
2022-08-26T12:16:29.899Z,100093.72
2022-08-26T12:17:33.273Z,100097.35
2022-08-26T12:18:44.794Z,100100.39
2022-08-26T12:19:51.183Z,100094.73
2022-08-26T12:20:58.083Z,100087.75
2022-08-26T12:22:05.435Z,100087.32
2022-08-26T12:23:09.586Z,100090.19
2022-08-26T12:24:17.392Z,100099.74
2022-08-26T12:25:25.942Z,100095.58
2022-08-26T12:26:34.677Z,100101.75
2022-08-26T12:27:44.839Z,100085.67
2022-08-26T12:28:52.441Z,100094.77
2022-08-26T12:30:14.059Z,100087.90
2022-08-26T12:31:31.669Z,100088.22
2022-08-26T12:32:57.290Z,100084.91
2022-08-26T12:33:51.238Z,100092.30
2022-08-26T12:34:57.003Z,100082.09
2022-08-26T12:36:02.986Z,100085.93
2022-08-26T12:37:10.669Z,100084.16
2022-08-26T12:38:13.661Z,100089.11
2022-08-26T12:39:30.265Z,100080.22
2022-08-26T12:40:39.644Z,100082.14
2022-08-26T12:41:46.536Z,100083.08
2022-08-26T12:42:50.107Z,100086.16
2022-08-26T12:43:58.568Z,100082.98
2022-08-26T12:45:07.305Z,100080.59
2022-08-26T12:46:17.176Z,100073.47
2022-08-26T12:47:42.752Z,100078.91
2022-08-26T12:48:42.934Z,100081.48
2022-08-26T12:49:46.172Z,100077.72
2022-08-26T12:50:53.845Z,100079.89
2022-08-26T12:51:57.661Z,100081.81
2022-08-26T12:53:04.809Z,100080.86
2022-08-26T12:54:13.101Z,100075.02
2022-08-26T12:55:30.704Z,100080.66
2022-08-26T12:56:41.239Z,100082.34
2022-08-26T12:57:50.124Z,100080.42
2022-08-26T12:59:13.469Z,100083.22
2022-08-26T13:00:28.529Z,100079.45
2022-08-26T13:01:44.466Z,100075.44
2022-08-26T13:02:47.903Z,100077.72
2022-08-26T13:03:51.573Z,100075.44
2022-08-26T13:05:00.847Z,100069.64
2022-08-26T13:06:20.978Z,100069.18
2022-08-26T13:07:28.431Z,100072.94
2022-08-26T13:09:44.986Z,100070.11
2022-08-26T13:10:52.639Z,100074.95
2022-08-26T13:11:58.924Z,100069.45
2022-08-26T13:13:01.647Z,100055.03
2022-08-26T13:14:18.320Z,100062.52
2022-08-26T13:15:19.908Z,100064.46
2022-08-26T13:16:28.847Z,100069.76
2022-08-26T13:17:35.034Z,100056.56
2022-08-26T13:18:40.965Z,100058.84
2022-08-26T13:19:44.553Z,100058.51